sensor_id;sensor_type;location;lat;lon;timestamp;pressure;altitude;pressure_sealevel;temperature
70831;BMP180;58451;51.550;7.208;2023-12-20T00:00:12;100659.40;;;7.20
70831;BMP180;58451;51.550;7.208;2023-12-20T00:01:44;100653.80;;;7.20
70831;BMP180;58451;51.550;7.208;2023-12-20T00:03:16;100654.00;;;7.20
70831;BMP180;58451;51.550;7.208;2023-12-20T00:04:48;100651.80;;;7.20
70831;BMP180;58451;51.550;7.208;2023-12-20T00:06:20;100653.00;;;7.20
70831;BMP180;58451;51.550;7.208;2023-12-20T00:07:52;100644.00;;;7.20
70831;BMP180;58451;51.550;7.208;2023-12-20T00:09:24;100643.60;;;7.20
70831;BMP180;58451;51.550;7.208;2023-12-20T00:10:56;100646.00;;;7.20
70831;BMP180;58451;51.550;7.208;2023-12-20T00:12:28;100651.40;;;7.20
70831;BMP180;58451;51.550;7.208;2023-12-20T00:14:00;100657.80;;;7.20
70831;BMP180;58451;51.550;7.208;2023-12-20T00:15:31;100649.40;;;7.20
70831;BMP180;58451;51.550;7.208;2023-12-20T00:17:03;100650.40;;;7.20
70831;BMP180;58451;51.550;7.208;2023-12-20T00:18:35;100654.80;;;7.20
70831;BMP180;58451;51.550;7.208;2023-12-20T00:20:08;100657.00;;;7.18
70831;BMP180;58451;51.550;7.208;2023-12-20T00:21:40;100660.20;;;7.12
70831;BMP180;58451;51.550;7.208;2023-12-20T00:23:11;100655.40;;;7.10
70831;BMP180;58451;51.550;7.208;2023-12-20T00:24:43;100656.00;;;7.10
70831;BMP180;58451;51.550;7.208;2023-12-20T00:26:15;100651.80;;;7.10
70831;BMP180;58451;51.550;7.208;2023-12-20T00:27:47;100655.00;;;7.10
70831;BMP180;58451;51.550;7.208;2023-12-20T00:29:19;100656.80;;;7.00
70831;BMP180;58451;51.550;7.208;2023-12-20T00:30:51;100667.00;;;7.00
70831;BMP180;58451;51.550;7.208;2023-12-20T00:32:23;100668.20;;;6.96
70831;BMP180;58451;51.550;7.208;2023-12-20T00:33:55;100671.40;;;6.90
70831;BMP180;58451;51.550;7.208;2023-12-20T00:35:27;100672.40;;;6.90
70831;BMP180;58451;51.550;7.208;2023-12-20T00:36:59;100673.60;;;6.90
70831;BMP180;58451;51.550;7.208;2023-12-20T00:38:30;100666.60;;;6.80
70831;BMP180;58451;51.550;7.208;2023-12-20T00:40:03;100672.60;;;6.80
70831;BMP180;58451;51.550;7.208;2023-12-20T00:41:35;100669.60;;;6.80
70831;BMP180;58451;51.550;7.208;2023-12-20T00:43:07;100669.40;;;6.78
70831;BMP180;58451;51.550;7.208;2023-12-20T00:44:39;100679.60;;;6.70
70831;BMP180;58451;51.550;7.208;2023-12-20T00:46:10;100682.20;;;6.70
70831;BMP180;58451;51.550;7.208;2023-12-20T00:47:42;100684.40;;;6.68
70831;BMP180;58451;51.550;7.208;2023-12-20T00:49:15;100690.00;;;6.60
70831;BMP180;58451;51.550;7.208;2023-12-20T00:50:47;100690.40;;;6.62
70831;BMP180;58451;51.550;7.208;2023-12-20T00:52:19;100691.40;;;6.60
70831;BMP180;58451;51.550;7.208;2023-12-20T00:53:51;100691.20;;;6.60
70831;BMP180;58451;51.550;7.208;2023-12-20T00:55:26;100692.60;;;6.60
70831;BMP180;58451;51.550;7.208;2023-12-20T00:56:58;100687.40;;;6.60
70831;BMP180;58451;51.550;7.208;2023-12-20T00:58:31;100691.20;;;6.60
70831;BMP180;58451;51.550;7.208;2023-12-20T01:00:03;100696.00;;;6.60
70831;BMP180;58451;51.550;7.208;2023-12-20T01:01:35;100690.00;;;6.60
70831;BMP180;58451;51.550;7.208;2023-12-20T01:03:07;100688.60;;;6.60
70831;BMP180;58451;51.550;7.208;2023-12-20T01:04:39;100695.40;;;6.60
70831;BMP180;58451;51.550;7.208;2023-12-20T01:06:11;100692.00;;;6.60
70831;BMP180;58451;51.550;7.208;2023-12-20T01:07:43;100696.40;;;6.60
70831;BMP180;58451;51.550;7.208;2023-12-20T01:09:15;100688.00;;;6.60
70831;BMP180;58451;51.550;7.208;2023-12-20T01:10:47;100683.40;;;6.60
70831;BMP180;58451;51.550;7.208;2023-12-20T01:12:19;100693.60;;;6.60
70831;BMP180;58451;51.550;7.208;2023-12-20T01:13:52;100696.60;;;6.60
70831;BMP180;58451;51.550;7.208;2023-12-20T01:15:23;100700.00;;;6.60
70831;BMP180;58451;51.550;7.208;2023-12-20T01:16:55;100695.60;;;6.60
70831;BMP180;58451;51.550;7.208;2023-12-20T01:18:27;100698.00;;;6.60
70831;BMP180;58451;51.550;7.208;2023-12-20T01:19:59;100699.20;;;6.60
70831;BMP180;58451;51.550;7.208;2023-12-20T01:21:31;100700.00;;;6.60
70831;BMP180;58451;51.550;7.208;2023-12-20T01:23:03;100699.60;;;6.60
70831;BMP180;58451;51.550;7.208;2023-12-20T01:24:35;100702.40;;;6.60
70831;BMP180;58451;51.550;7.208;2023-12-20T01:26:07;100702.40;;;6.60
70831;BMP180;58451;51.550;7.208;2023-12-20T01:27:38;100695.40;;;6.60
70831;BMP180;58451;51.550;7.208;2023-12-20T01:29:10;100704.20;;;6.60
70831;BMP180;58451;51.550;7.208;2023-12-20T01:30:42;100710.00;;;6.60
70831;BMP180;58451;51.550;7.208;2023-12-20T01:32:15;100710.60;;;6.60
70831;BMP180;58451;51.550;7.208;2023-12-20T01:33:53;100709.20;;;6.60
70831;BMP180;58451;51.550;7.208;2023-12-20T01:35:25;100711.80;;;6.60
70831;BMP180;58451;51.550;7.208;2023-12-20T01:36:57;100709.60;;;6.60
70831;BMP180;58451;51.550;7.208;2023-12-20T01:38:31;100708.20;;;6.58
70831;BMP180;58451;51.550;7.208;2023-12-20T01:40:04;100708.80;;;6.50
70831;BMP180;58451;51.550;7.208;2023-12-20T01:41:36;100709.40;;;6.50
70831;BMP180;58451;51.550;7.208;2023-12-20T01:43:08;100707.20;;;6.40
70831;BMP180;58451;51.550;7.208;2023-12-20T01:44:41;100709.20;;;6.40
70831;BMP180;58451;51.550;7.208;2023-12-20T01:46:13;100705.80;;;6.30
70831;BMP180;58451;51.550;7.208;2023-12-20T01:47:46;100704.80;;;6.30
70831;BMP180;58451;51.550;7.208;2023-12-20T01:49:18;100706.00;;;6.30
70831;BMP180;58451;51.550;7.208;2023-12-20T01:50:52;100704.80;;;6.20
70831;BMP180;58451;51.550;7.208;2023-12-20T01:52:26;100702.20;;;6.20
70831;BMP180;58451;51.550;7.208;2023-12-20T01:53:59;100702.20;;;6.20
70831;BMP180;58451;51.550;7.208;2023-12-20T01:55:34;100702.00;;;6.10
70831;BMP180;58451;51.550;7.208;2023-12-20T01:57:07;100702.00;;;6.10
70831;BMP180;58451;51.550;7.208;2023-12-20T01:58:46;100698.40;;;6.10
70831;BMP180;58451;51.550;7.208;2023-12-20T02:00:21;100704.00;;;6.10
70831;BMP180;58451;51.550;7.208;2023-12-20T02:01:55;100702.40;;;6.10
70831;BMP180;58451;51.550;7.208;2023-12-20T02:03:27;100707.00;;;6.10
70831;BMP180;58451;51.550;7.208;2023-12-20T02:05:00;100701.60;;;6.08
70831;BMP180;58451;51.550;7.208;2023-12-20T02:06:34;100697.60;;;6.00
70831;BMP180;58451;51.550;7.208;2023-12-20T02:08:06;100698.80;;;6.00
70831;BMP180;58451;51.550;7.208;2023-12-20T02:09:39;100699.00;;;6.00
70831;BMP180;58451;51.550;7.208;2023-12-20T02:11:12;100711.20;;;6.00
70831;BMP180;58451;51.550;7.208;2023-12-20T02:12:44;100703.40;;;6.00
70831;BMP180;58451;51.550;7.208;2023-12-20T02:14:16;100699.80;;;6.00
70831;BMP180;58451;51.550;7.208;2023-12-20T02:15:47;100698.60;;;6.00
70831;BMP180;58451;51.550;7.208;2023-12-20T02:17:20;100702.80;;;6.00
70831;BMP180;58451;51.550;7.208;2023-12-20T02:18:52;100696.20;;;5.98
70831;BMP180;58451;51.550;7.208;2023-12-20T02:20:24;100696.60;;;5.90
70831;BMP180;58451;51.550;7.208;2023-12-20T02:22:11;100696.80;;;5.90
70831;BMP180;58451;51.550;7.208;2023-12-20T02:23:43;100687.40;;;5.90
70831;BMP180;58451;51.550;7.208;2023-12-20T02:25:15;100693.40;;;5.90
70831;BMP180;58451;51.550;7.208;2023-12-20T02:26:47;100692.80;;;5.88
70831;BMP180;58451;51.550;7.208;2023-12-20T02:28:20;100700.40;;;5.82
70831;BMP180;58451;51.550;7.208;2023-12-20T02:29:53;100700.20;;;5.90
70831;BMP180;58451;51.550;7.208;2023-12-20T02:31:25;100696.40;;;5.90
70831;BMP180;58451;51.550;7.208;2023-12-20T02:32:59;100706.60;;;5.90
70831;BMP180;58451;51.550;7.208;2023-12-20T02:34:32;100701.20;;;5.90
70831;BMP180;58451;51.550;7.208;2023-12-20T02:36:06;100705.00;;;5.90
70831;BMP180;58451;51.550;7.208;2023-12-20T02:37:38;100705.40;;;5.90
70831;BMP180;58451;51.550;7.208;2023-12-20T02:39:10;100704.80;;;5.90
70831;BMP180;58451;51.550;7.208;2023-12-20T02:40:41;100706.40;;;5.90
70831;BMP180;58451;51.550;7.208;2023-12-20T02:42:20;100706.80;;;6.00
70831;BMP180;58451;51.550;7.208;2023-12-20T02:43:52;100702.40;;;6.00
70831;BMP180;58451;51.550;7.208;2023-12-20T02:45:25;100699.40;;;6.00
70831;BMP180;58451;51.550;7.208;2023-12-20T02:46:57;100694.60;;;6.00
70831;BMP180;58451;51.550;7.208;2023-12-20T02:48:29;100696.20;;;6.00
70831;BMP180;58451;51.550;7.208;2023-12-20T02:50:01;100699.60;;;6.00
70831;BMP180;58451;51.550;7.208;2023-12-20T02:51:33;100695.00;;;6.00
70831;BMP180;58451;51.550;7.208;2023-12-20T02:53:05;100708.80;;;6.00
70831;BMP180;58451;51.550;7.208;2023-12-20T02:54:37;100706.60;;;6.00
70831;BMP180;58451;51.550;7.208;2023-12-20T02:56:09;100712.00;;;6.00
70831;BMP180;58451;51.550;7.208;2023-12-20T02:57:40;100708.80;;;6.00
70831;BMP180;58451;51.550;7.208;2023-12-20T02:59:14;100707.20;;;6.00
70831;BMP180;58451;51.550;7.208;2023-12-20T03:00:48;100713.00;;;6.00
70831;BMP180;58451;51.550;7.208;2023-12-20T03:02:20;100707.20;;;6.00
70831;BMP180;58451;51.550;7.208;2023-12-20T03:03:52;100711.60;;;6.00
70831;BMP180;58451;51.550;7.208;2023-12-20T03:05:24;100710.00;;;6.00
70831;BMP180;58451;51.550;7.208;2023-12-20T03:06:56;100709.40;;;6.00
70831;BMP180;58451;51.550;7.208;2023-12-20T03:08:28;100710.60;;;6.00
70831;BMP180;58451;51.550;7.208;2023-12-20T03:10:03;100708.80;;;6.00
70831;BMP180;58451;51.550;7.208;2023-12-20T03:11:50;100702.40;;;5.98
70831;BMP180;58451;51.550;7.208;2023-12-20T03:13:22;100702.60;;;6.00
70831;BMP180;58451;51.550;7.208;2023-12-20T03:14:54;100702.20;;;5.92
70831;BMP180;58451;51.550;7.208;2023-12-20T03:16:26;100702.40;;;5.92
70831;BMP180;58451;51.550;7.208;2023-12-20T03:17:57;100692.40;;;5.92
70831;BMP180;58451;51.550;7.208;2023-12-20T03:19:31;100695.60;;;5.90
70831;BMP180;58451;51.550;7.208;2023-12-20T03:21:04;100693.40;;;5.90
70831;BMP180;58451;51.550;7.208;2023-12-20T03:22:36;100693.60;;;5.90
70831;BMP180;58451;51.550;7.208;2023-12-20T03:24:08;100689.40;;;5.90
70831;BMP180;58451;51.550;7.208;2023-12-20T03:25:40;100697.60;;;5.84
70831;BMP180;58451;51.550;7.208;2023-12-20T03:27:12;100694.40;;;5.80
70831;BMP180;58451;51.550;7.208;2023-12-20T03:28:43;100697.00;;;5.80
70831;BMP180;58451;51.550;7.208;2023-12-20T03:30:15;100696.60;;;5.80
70831;BMP180;58451;51.550;7.208;2023-12-20T03:31:47;100697.60;;;5.72
70831;BMP180;58451;51.550;7.208;2023-12-20T03:33:22;100701.60;;;5.70
70831;BMP180;58451;51.550;7.208;2023-12-20T03:34:54;100704.40;;;5.70
70831;BMP180;58451;51.550;7.208;2023-12-20T03:36:26;100700.40;;;5.70
70831;BMP180;58451;51.550;7.208;2023-12-20T03:37:58;100694.80;;;5.70
70831;BMP180;58451;51.550;7.208;2023-12-20T03:39:32;100700.80;;;5.70
70831;BMP180;58451;51.550;7.208;2023-12-20T03:41:04;100693.80;;;5.70
70831;BMP180;58451;51.550;7.208;2023-12-20T03:42:36;100686.80;;;5.70
70831;BMP180;58451;51.550;7.208;2023-12-20T03:44:08;100680.60;;;5.70
70831;BMP180;58451;51.550;7.208;2023-12-20T03:45:40;100676.20;;;5.70
70831;BMP180;58451;51.550;7.208;2023-12-20T03:47:12;100680.00;;;5.70
70831;BMP180;58451;51.550;7.208;2023-12-20T03:48:43;100673.60;;;5.68
70831;BMP180;58451;51.550;7.208;2023-12-20T03:50:15;100675.20;;;5.70
70831;BMP180;58451;51.550;7.208;2023-12-20T03:51:47;100678.60;;;5.60
70831;BMP180;58451;51.550;7.208;2023-12-20T03:53:19;100675.80;;;5.60
70831;BMP180;58451;51.550;7.208;2023-12-20T03:54:51;100680.40;;;5.60
70831;BMP180;58451;51.550;7.208;2023-12-20T03:56:23;100683.80;;;5.60
70831;BMP180;58451;51.550;7.208;2023-12-20T03:57:55;100686.60;;;5.60
70831;BMP180;58451;51.550;7.208;2023-12-20T03:59:27;100686.20;;;5.60
70831;BMP180;58451;51.550;7.208;2023-12-20T04:00:59;100691.00;;;5.60
70831;BMP180;58451;51.550;7.208;2023-12-20T04:02:31;100697.60;;;5.60
70831;BMP180;58451;51.550;7.208;2023-12-20T04:04:03;100688.40;;;5.60
70831;BMP180;58451;51.550;7.208;2023-12-20T04:05:35;100685.20;;;5.60
70831;BMP180;58451;51.550;7.208;2023-12-20T04:07:07;100679.40;;;5.60
70831;BMP180;58451;51.550;7.208;2023-12-20T04:08:39;100679.80;;;5.60
70831;BMP180;58451;51.550;7.208;2023-12-20T04:10:10;100681.60;;;5.58
70831;BMP180;58451;51.550;7.208;2023-12-20T04:11:42;100679.60;;;5.54
70831;BMP180;58451;51.550;7.208;2023-12-20T04:13:14;100683.20;;;5.50
70831;BMP180;58451;51.550;7.208;2023-12-20T04:14:46;100682.40;;;5.50
70831;BMP180;58451;51.550;7.208;2023-12-20T04:16:18;100680.60;;;5.50
70831;BMP180;58451;51.550;7.208;2023-12-20T04:17:50;100681.60;;;5.50
70831;BMP180;58451;51.550;7.208;2023-12-20T04:19:21;100681.80;;;5.50
70831;BMP180;58451;51.550;7.208;2023-12-20T04:20:53;100682.80;;;5.50
70831;BMP180;58451;51.550;7.208;2023-12-20T04:22:25;100682.20;;;5.50
70831;BMP180;58451;51.550;7.208;2023-12-20T04:23:57;100684.20;;;5.42
70831;BMP180;58451;51.550;7.208;2023-12-20T04:25:29;100676.20;;;5.40
70831;BMP180;58451;51.550;7.208;2023-12-20T04:27:02;100677.40;;;5.40
70831;BMP180;58451;51.550;7.208;2023-12-20T04:28:34;100683.40;;;5.40
70831;BMP180;58451;51.550;7.208;2023-12-20T04:30:07;100673.80;;;5.40
70831;BMP180;58451;51.550;7.208;2023-12-20T04:31:39;100676.40;;;5.40
70831;BMP180;58451;51.550;7.208;2023-12-20T04:33:11;100673.20;;;5.40
70831;BMP180;58451;51.550;7.208;2023-12-20T04:34:43;100679.60;;;5.40
70831;BMP180;58451;51.550;7.208;2023-12-20T04:36:15;100674.60;;;5.40
70831;BMP180;58451;51.550;7.208;2023-12-20T04:37:47;100685.40;;;5.40
70831;BMP180;58451;51.550;7.208;2023-12-20T04:39:21;100684.00;;;5.40
70831;BMP180;58451;51.550;7.208;2023-12-20T04:40:53;100688.40;;;5.40
70831;BMP180;58451;51.550;7.208;2023-12-20T04:42:25;100689.60;;;5.40
70831;BMP180;58451;51.550;7.208;2023-12-20T04:43:56;100690.20;;;5.40
70831;BMP180;58451;51.550;7.208;2023-12-20T04:45:28;100694.60;;;5.40
70831;BMP180;58451;51.550;7.208;2023-12-20T04:47:00;100700.00;;;5.40
70831;BMP180;58451;51.550;7.208;2023-12-20T04:48:33;100695.00;;;5.40
70831;BMP180;58451;51.550;7.208;2023-12-20T04:50:05;100694.20;;;5.40
70831;BMP180;58451;51.550;7.208;2023-12-20T04:51:38;100691.60;;;5.40
70831;BMP180;58451;51.550;7.208;2023-12-20T04:53:10;100692.60;;;5.40
70831;BMP180;58451;51.550;7.208;2023-12-20T04:54:42;100692.80;;;5.46
70831;BMP180;58451;51.550;7.208;2023-12-20T04:56:15;100689.80;;;5.50
70831;BMP180;58451;51.550;7.208;2023-12-20T04:57:47;100693.00;;;5.50
70831;BMP180;58451;51.550;7.208;2023-12-20T04:59:19;100692.40;;;5.50
70831;BMP180;58451;51.550;7.208;2023-12-20T05:00:51;100688.00;;;5.50
70831;BMP180;58451;51.550;7.208;2023-12-20T05:02:24;100691.00;;;5.50
70831;BMP180;58451;51.550;7.208;2023-12-20T05:03:55;100694.20;;;5.50
70831;BMP180;58451;51.550;7.208;2023-12-20T05:05:27;100703.00;;;5.50
70831;BMP180;58451;51.550;7.208;2023-12-20T05:07:00;100694.60;;;5.50
70831;BMP180;58451;51.550;7.208;2023-12-20T05:08:32;100692.00;;;5.50
70831;BMP180;58451;51.550;7.208;2023-12-20T05:10:04;100690.40;;;5.50
70831;BMP180;58451;51.550;7.208;2023-12-20T05:11:38;100696.40;;;5.50
70831;BMP180;58451;51.550;7.208;2023-12-20T05:13:10;100694.80;;;5.50
70831;BMP180;58451;51.550;7.208;2023-12-20T05:14:42;100697.20;;;5.48
70831;BMP180;58451;51.550;7.208;2023-12-20T05:16:14;100695.00;;;5.40
70831;BMP180;58451;51.550;7.208;2023-12-20T05:17:50;100686.40;;;5.40
70831;BMP180;58451;51.550;7.208;2023-12-20T05:19:22;100685.60;;;5.40
70831;BMP180;58451;51.550;7.208;2023-12-20T05:20:55;100689.60;;;5.40
70831;BMP180;58451;51.550;7.208;2023-12-20T05:22:30;100696.20;;;5.40
70831;BMP180;58451;51.550;7.208;2023-12-20T05:24:02;100697.60;;;5.40
70831;BMP180;58451;51.550;7.208;2023-12-20T05:25:34;100697.20;;;5.40
70831;BMP180;58451;51.550;7.208;2023-12-20T05:27:05;100690.60;;;5.40
70831;BMP180;58451;51.550;7.208;2023-12-20T05:28:37;100690.00;;;5.42
70831;BMP180;58451;51.550;7.208;2023-12-20T05:30:10;100684.20;;;5.42
70831;BMP180;58451;51.550;7.208;2023-12-20T05:31:42;100676.40;;;5.40
70831;BMP180;58451;51.550;7.208;2023-12-20T05:33:14;100676.00;;;5.40
70831;BMP180;58451;51.550;7.208;2023-12-20T05:34:46;100675.60;;;5.46
70831;BMP180;58451;51.550;7.208;2023-12-20T05:36:18;100669.40;;;5.44
70831;BMP180;58451;51.550;7.208;2023-12-20T05:37:50;100673.40;;;5.50
70831;BMP180;58451;51.550;7.208;2023-12-20T05:39:22;100673.20;;;5.44
70831;BMP180;58451;51.550;7.208;2023-12-20T05:40:54;100670.40;;;5.44
70831;BMP180;58451;51.550;7.208;2023-12-20T05:42:26;100678.80;;;5.42
70831;BMP180;58451;51.550;7.208;2023-12-20T05:43:58;100669.20;;;5.40
70831;BMP180;58451;51.550;7.208;2023-12-20T05:45:30;100671.00;;;5.40
70831;BMP180;58451;51.550;7.208;2023-12-20T05:47:01;100671.60;;;5.40
70831;BMP180;58451;51.550;7.208;2023-12-20T05:48:33;100673.00;;;5.40
70831;BMP180;58451;51.550;7.208;2023-12-20T05:50:05;100670.80;;;5.40
70831;BMP180;58451;51.550;7.208;2023-12-20T05:51:37;100666.00;;;5.40
70831;BMP180;58451;51.550;7.208;2023-12-20T05:53:09;100666.40;;;5.40
70831;BMP180;58451;51.550;7.208;2023-12-20T05:54:42;100667.40;;;5.40
70831;BMP180;58451;51.550;7.208;2023-12-20T05:56:13;100672.20;;;5.40
70831;BMP180;58451;51.550;7.208;2023-12-20T05:57:45;100672.40;;;5.40
70831;BMP180;58451;51.550;7.208;2023-12-20T05:59:18;100673.40;;;5.40
70831;BMP180;58451;51.550;7.208;2023-12-20T06:00:50;100676.80;;;5.44
70831;BMP180;58451;51.550;7.208;2023-12-20T06:02:22;100677.60;;;5.40
70831;BMP180;58451;51.550;7.208;2023-12-20T06:03:54;100680.60;;;5.42
70831;BMP180;58451;51.550;7.208;2023-12-20T06:05:25;100678.00;;;5.40
70831;BMP180;58451;51.550;7.208;2023-12-20T06:06:58;100680.40;;;5.42
70831;BMP180;58451;51.550;7.208;2023-12-20T06:08:30;100680.20;;;5.40
70831;BMP180;58451;51.550;7.208;2023-12-20T06:10:01;100678.20;;;5.44
70831;BMP180;58451;51.550;7.208;2023-12-20T06:11:33;100673.80;;;5.48
70831;BMP180;58451;51.550;7.208;2023-12-20T06:13:05;100675.80;;;5.48
70831;BMP180;58451;51.550;7.208;2023-12-20T06:14:38;100671.00;;;5.42
70831;BMP180;58451;51.550;7.208;2023-12-20T06:16:10;100676.20;;;5.50
70831;BMP180;58451;51.550;7.208;2023-12-20T06:17:42;100678.20;;;5.46
70831;BMP180;58451;51.550;7.208;2023-12-20T06:19:14;100682.00;;;5.48
70831;BMP180;58451;51.550;7.208;2023-12-20T06:20:47;100688.00;;;5.50
70831;BMP180;58451;51.550;7.208;2023-12-20T06:22:19;100686.20;;;5.50
70831;BMP180;58451;51.550;7.208;2023-12-20T06:23:51;100681.00;;;5.50
70831;BMP180;58451;51.550;7.208;2023-12-20T06:25:22;100690.40;;;5.50
70831;BMP180;58451;51.550;7.208;2023-12-20T06:26:54;100688.60;;;5.50
70831;BMP180;58451;51.550;7.208;2023-12-20T06:28:27;100684.20;;;5.50
70831;BMP180;58451;51.550;7.208;2023-12-20T06:29:59;100683.00;;;5.50
70831;BMP180;58451;51.550;7.208;2023-12-20T06:31:31;100683.80;;;5.50
70831;BMP180;58451;51.550;7.208;2023-12-20T06:33:04;100686.40;;;5.50
70831;BMP180;58451;51.550;7.208;2023-12-20T06:34:38;100681.00;;;5.50
70831;BMP180;58451;51.550;7.208;2023-12-20T06:36:13;100677.80;;;5.50
70831;BMP180;58451;51.550;7.208;2023-12-20T06:37:45;100685.80;;;5.56
70831;BMP180;58451;51.550;7.208;2023-12-20T06:39:18;100678.00;;;5.54
70831;BMP180;58451;51.550;7.208;2023-12-20T06:40:50;100677.60;;;5.60
70831;BMP180;58451;51.550;7.208;2023-12-20T06:42:23;100672.60;;;5.60
70831;BMP180;58451;51.550;7.208;2023-12-20T06:43:54;100679.00;;;5.60
70831;BMP180;58451;51.550;7.208;2023-12-20T06:45:26;100674.80;;;5.60
70831;BMP180;58451;51.550;7.208;2023-12-20T06:46:58;100682.00;;;5.60
70831;BMP180;58451;51.550;7.208;2023-12-20T06:48:30;100682.40;;;5.60
70831;BMP180;58451;51.550;7.208;2023-12-20T06:50:04;100687.40;;;5.60
70831;BMP180;58451;51.550;7.208;2023-12-20T06:51:36;100691.00;;;5.60
70831;BMP180;58451;51.550;7.208;2023-12-20T06:53:08;100690.80;;;5.60
70831;BMP180;58451;51.550;7.208;2023-12-20T06:54:40;100686.20;;;5.60
70831;BMP180;58451;51.550;7.208;2023-12-20T06:56:12;100680.40;;;5.62
70831;BMP180;58451;51.550;7.208;2023-12-20T06:57:50;100681.00;;;5.70
70831;BMP180;58451;51.550;7.208;2023-12-20T06:59:22;100679.80;;;5.68
70831;BMP180;58451;51.550;7.208;2023-12-20T07:00:54;100681.80;;;5.66
70831;BMP180;58451;51.550;7.208;2023-12-20T07:02:26;100679.00;;;5.70
70831;BMP180;58451;51.550;7.208;2023-12-20T07:04:00;100678.80;;;5.70
70831;BMP180;58451;51.550;7.208;2023-12-20T07:05:32;100673.60;;;5.70
70831;BMP180;58451;51.550;7.208;2023-12-20T07:07:05;100673.80;;;5.70
70831;BMP180;58451;51.550;7.208;2023-12-20T07:08:36;100674.00;;;5.70
70831;BMP180;58451;51.550;7.208;2023-12-20T07:10:08;100675.80;;;5.70
70831;BMP180;58451;51.550;7.208;2023-12-20T07:11:41;100676.80;;;5.70
70831;BMP180;58451;51.550;7.208;2023-12-20T07:13:13;100680.00;;;5.70
70831;BMP180;58451;51.550;7.208;2023-12-20T07:14:46;100670.00;;;5.78
70831;BMP180;58451;51.550;7.208;2023-12-20T07:16:18;100664.80;;;5.80
70831;BMP180;58451;51.550;7.208;2023-12-20T07:17:50;100657.20;;;5.80
70831;BMP180;58451;51.550;7.208;2023-12-20T07:19:22;100661.40;;;5.80
70831;BMP180;58451;51.550;7.208;2023-12-20T07:20:54;100664.20;;;5.80
70831;BMP180;58451;51.550;7.208;2023-12-20T07:22:27;100660.20;;;5.80
70831;BMP180;58451;51.550;7.208;2023-12-20T07:24:01;100666.60;;;5.80
70831;BMP180;58451;51.550;7.208;2023-12-20T07:25:33;100664.20;;;5.80
70831;BMP180;58451;51.550;7.208;2023-12-20T07:27:05;100662.40;;;5.80
70831;BMP180;58451;51.550;7.208;2023-12-20T07:28:36;100664.60;;;5.80
70831;BMP180;58451;51.550;7.208;2023-12-20T07:30:09;100675.60;;;5.80
70831;BMP180;58451;51.550;7.208;2023-12-20T07:31:42;100668.20;;;5.80
70831;BMP180;58451;51.550;7.208;2023-12-20T07:33:14;100672.20;;;5.80
70831;BMP180;58451;51.550;7.208;2023-12-20T07:34:46;100676.40;;;5.80
70831;BMP180;58451;51.550;7.208;2023-12-20T07:36:19;100675.00;;;5.80
70831;BMP180;58451;51.550;7.208;2023-12-20T07:37:53;100677.80;;;5.80
70831;BMP180;58451;51.550;7.208;2023-12-20T07:39:24;100678.60;;;5.82
70831;BMP180;58451;51.550;7.208;2023-12-20T07:40:56;100680.80;;;5.84
70831;BMP180;58451;51.550;7.208;2023-12-20T07:42:28;100685.00;;;5.80
70831;BMP180;58451;51.550;7.208;2023-12-20T07:44:00;100679.20;;;5.86
70831;BMP180;58451;51.550;7.208;2023-12-20T07:45:32;100679.80;;;5.90
70831;BMP180;58451;51.550;7.208;2023-12-20T07:47:04;100692.20;;;5.90
70831;BMP180;58451;51.550;7.208;2023-12-20T07:48:37;100688.20;;;5.90
70831;BMP180;58451;51.550;7.208;2023-12-20T07:50:09;100683.60;;;5.90
70831;BMP180;58451;51.550;7.208;2023-12-20T07:51:42;100678.80;;;5.90
70831;BMP180;58451;51.550;7.208;2023-12-20T07:53:14;100679.60;;;5.90
70831;BMP180;58451;51.550;7.208;2023-12-20T07:54:46;100673.80;;;5.90
70831;BMP180;58451;51.550;7.208;2023-12-20T07:56:19;100681.60;;;5.90
70831;BMP180;58451;51.550;7.208;2023-12-20T07:57:52;100684.80;;;5.90
70831;BMP180;58451;51.550;7.208;2023-12-20T07:59:24;100679.20;;;5.94
70831;BMP180;58451;51.550;7.208;2023-12-20T08:01:03;100679.80;;;6.00
70831;BMP180;58451;51.550;7.208;2023-12-20T08:02:35;100677.00;;;6.00
70831;BMP180;58451;51.550;7.208;2023-12-20T08:04:07;100673.60;;;6.00
70831;BMP180;58451;51.550;7.208;2023-12-20T08:05:39;100672.00;;;6.00
70831;BMP180;58451;51.550;7.208;2023-12-20T08:07:11;100664.00;;;6.00
70831;BMP180;58451;51.550;7.208;2023-12-20T08:08:43;100664.80;;;6.00
70831;BMP180;58451;51.550;7.208;2023-12-20T08:10:16;100666.80;;;6.00
70831;BMP180;58451;51.550;7.208;2023-12-20T08:11:49;100669.60;;;6.00
70831;BMP180;58451;51.550;7.208;2023-12-20T08:13:21;100668.80;;;6.00
70831;BMP180;58451;51.550;7.208;2023-12-20T08:14:57;100672.00;;;6.00
70831;BMP180;58451;51.550;7.208;2023-12-20T08:16:29;100671.00;;;6.02
70831;BMP180;58451;51.550;7.208;2023-12-20T08:18:03;100675.60;;;6.08
70831;BMP180;58451;51.550;7.208;2023-12-20T08:19:35;100668.40;;;6.10
70831;BMP180;58451;51.550;7.208;2023-12-20T08:21:07;100672.80;;;6.10
70831;BMP180;58451;51.550;7.208;2023-12-20T08:22:43;100669.00;;;6.10
70831;BMP180;58451;51.550;7.208;2023-12-20T08:24:15;100672.00;;;6.12
70831;BMP180;58451;51.550;7.208;2023-12-20T08:25:47;100676.40;;;6.20
70831;BMP180;58451;51.550;7.208;2023-12-20T08:27:20;100672.00;;;6.20
70831;BMP180;58451;51.550;7.208;2023-12-20T08:28:52;100673.20;;;6.18
70831;BMP180;58451;51.550;7.208;2023-12-20T08:30:24;100675.00;;;6.18
70831;BMP180;58451;51.550;7.208;2023-12-20T08:31:57;100670.60;;;6.20
70831;BMP180;58451;51.550;7.208;2023-12-20T08:33:29;100669.00;;;6.20
70831;BMP180;58451;51.550;7.208;2023-12-20T08:35:01;100662.20;;;6.20
70831;BMP180;58451;51.550;7.208;2023-12-20T08:36:32;100673.60;;;6.20
70831;BMP180;58451;51.550;7.208;2023-12-20T08:38:05;100677.00;;;6.20
70831;BMP180;58451;51.550;7.208;2023-12-20T08:39:36;100675.20;;;6.20
70831;BMP180;58451;51.550;7.208;2023-12-20T08:41:08;100674.80;;;6.20
70831;BMP180;58451;51.550;7.208;2023-12-20T08:42:40;100684.40;;;6.20
70831;BMP180;58451;51.550;7.208;2023-12-20T08:44:12;100675.00;;;6.20
70831;BMP180;58451;51.550;7.208;2023-12-20T08:45:44;100677.60;;;6.20
70831;BMP180;58451;51.550;7.208;2023-12-20T08:47:16;100673.40;;;6.22
70831;BMP180;58451;51.550;7.208;2023-12-20T08:48:49;100681.00;;;6.28
70831;BMP180;58451;51.550;7.208;2023-12-20T08:50:21;100684.00;;;6.30
70831;BMP180;58451;51.550;7.208;2023-12-20T08:51:53;100685.80;;;6.30